Plancius — PBQK — position and weather

sailwx.info

Track history (hours):
 
Tides and Currents Weather Stations Pressure Air Temp Water Temp Dewpoint Dewpoint Depression Visibility Wind Speed Wind Dir Waves Ship Positions

Plancius

Last reported at 2019-Sep-17 00:00 UTC. Time now 2019-Sep-21 11:22 UTC.
Position N 70°18' W 022°48'.

Length 90 m; draft 5.3 m.

Type: Passenger vessel. MMSI: 246573000.

Barometer 1023.1 mb

Date/timePositionNaut miles runAvg speedWind from/ knotsBaromVisibWave heightAir tempDewpointWater temp
2019-Sep-17 00:00N 70°18' W 022°48'6 6.1 1023.1
2019-Sep-16 23:00N 70°18' W 022°30'4 4.0 1022.4
2019-Sep-16 22:00N 70°18' W 022°18'9 8.5 1021.8
2019-Sep-16 21:00N 70°12' W 022°00'7 7.3 1020.7
2019-Sep-16 20:00N 70°06' W 021°48'19 9.5 1020.1
2019-Sep-16 18:00N 69°48' W 021°30'1212.2 1017.7
2019-Sep-16 17:00N 69°36' W 021°24'2512.4 1017.1
2019-Sep-16 15:00N 69°12' W 021°06'1312.7 1016.0
2019-Sep-16 14:00N 69°00' W 020°54'1212.2 1015.2
2019-Sep-16 13:00N 68°48' W 020°48'9 4.4 1014.4
2019-Sep-16 11:00N 68°42' W 020°30'1312.8 1012.6
2019-Sep-16 10:00N 68°30' W 020°18'1212.2 1011.1
2019-Sep-16 09:00N 68°18' W 020°12'1312.8 1009.6
2019-Sep-16 08:00N 68°06' W 020°00'1212.2 1008.2
2019-Sep-16 07:00N 67°54' W 019°54'1312.8 1006.5
2019-Sep-16 06:00N 67°42' W 019°42'6 6.4 1005.2
2019-Sep-16 05:00N 67°36' W 019°36'1312.8 1003.5
2019-Sep-16 04:00N 67°24' W 019°24'1212.2 1002.4
2019-Sep-16 03:00N 67°12' W 019°18'1312.9 1001.1
2019-Sep-16 02:00N 67°00' W 019°06'1212.2 1000.7
2019-Sep-16 01:00N 66°48' W 019°00'1312.9 1000.5
2019-Sep-16 00:00N 66°36' W 018°48'1212.2 1000.1
2019-Sep-15 23:00N 66°24' W 018°42'1312.9 999.5
2019-Sep-15 22:00N 66°12' W 018°30'8 7.7 999.3
2019-Sep-15 21:00N 66°06' W 018°18'1212.0 999.2
2019-Sep-15 20:00N 65°54' W 018°18'2 2.4 998.9
2019-Sep-15 19:00N 65°54' W 018°12'12 3.1 998.4
2019-Sep-15 15:00N 65°42' W 018°06'   1001.2
Track history (hours):
 
Tides and Currents Weather Stations Pressure Air Temp Water Temp Dewpoint Dewpoint Depression Visibility Wind Speed Wind Dir Waves Ship Positions

Plancius

Last reported at 2019-Sep-17 00:00 UTC. Time now 2019-Sep-21 11:22 UTC.
Position N 70°18' W 022°48'.

Length 90 m; draft 5.3 m.

Type: Passenger vessel. MMSI: 246573000.

Barometer 1023.1 mb

Date/timePositionNaut miles runAvg speedWind from/ knotsBaromVisibWave heightAir tempDewpointWater temp
2019-Sep-17 00:00N 70°18' W 022°48'6 6.1 1023.1
2019-Sep-16 23:00N 70°18' W 022°30'4 4.0 1022.4
2019-Sep-16 22:00N 70°18' W 022°18'9 8.5 1021.8
2019-Sep-16 21:00N 70°12' W 022°00'7 7.3 1020.7
2019-Sep-16 20:00N 70°06' W 021°48'19 9.5 1020.1
2019-Sep-16 18:00N 69°48' W 021°30'1212.2 1017.7
2019-Sep-16 17:00N 69°36' W 021°24'2512.4 1017.1
2019-Sep-16 15:00N 69°12' W 021°06'1312.7 1016.0
2019-Sep-16 14:00N 69°00' W 020°54'1212.2 1015.2
2019-Sep-16 13:00N 68°48' W 020°48'9 4.4 1014.4
2019-Sep-16 11:00N 68°42' W 020°30'1312.8 1012.6
2019-Sep-16 10:00N 68°30' W 020°18'1212.2 1011.1
2019-Sep-16 09:00N 68°18' W 020°12'1312.8 1009.6
2019-Sep-16 08:00N 68°06' W 020°00'1212.2 1008.2
2019-Sep-16 07:00N 67°54' W 019°54'1312.8 1006.5
2019-Sep-16 06:00N 67°42' W 019°42'6 6.4 1005.2
2019-Sep-16 05:00N 67°36' W 019°36'1312.8 1003.5
2019-Sep-16 04:00N 67°24' W 019°24'1212.2 1002.4
2019-Sep-16 03:00N 67°12' W 019°18'1312.9 1001.1
2019-Sep-16 02:00N 67°00' W 019°06'1212.2 1000.7
2019-Sep-16 01:00N 66°48' W 019°00'1312.9 1000.5
2019-Sep-16 00:00N 66°36' W 018°48'1212.2 1000.1
2019-Sep-15 23:00N 66°24' W 018°42'1312.9 999.5
2019-Sep-15 22:00N 66°12' W 018°30'8 7.7 999.3
2019-Sep-15 21:00N 66°06' W 018°18'1212.0 999.2
2019-Sep-15 20:00N 65°54' W 018°18'2 2.4 998.9
2019-Sep-15 19:00N 65°54' W 018°12'12 3.1 998.4
2019-Sep-15 15:00N 65°42' W 018°06'   1001.2

Dump ship's entire track history